createdAt,value
2022-09-06T00:00:17.070Z,18.90
2022-09-06T00:02:45.168Z,18.90
2022-09-06T00:05:13.601Z,18.90
2022-09-06T00:07:41.155Z,18.90
2022-09-06T00:10:08.653Z,18.90
2022-09-06T00:12:36.299Z,18.90
2022-09-06T00:15:04.697Z,18.90
2022-09-06T00:17:33.242Z,18.90
2022-09-06T00:20:00.302Z,18.90
2022-09-06T00:22:28.205Z,18.90
2022-09-06T00:24:55.142Z,18.90
2022-09-06T00:27:22.469Z,18.90
2022-09-06T00:29:49.379Z,18.90
2022-09-06T00:32:17.308Z,18.90
2022-09-06T00:34:44.216Z,18.90
2022-09-06T00:37:11.161Z,18.90
2022-09-06T00:39:38.118Z,18.90
2022-09-06T00:42:09.494Z,18.80
2022-09-06T00:44:37.138Z,18.90
2022-09-06T00:47:05.583Z,18.80
2022-09-06T00:49:38.575Z,18.80
2022-09-06T00:52:09.857Z,18.80
2022-09-06T00:54:37.136Z,18.80
2022-09-06T00:57:04.668Z,18.80
2022-09-06T00:59:35.903Z,18.80
2022-09-06T01:02:03.165Z,18.80
2022-09-06T01:04:30.231Z,18.80
2022-09-06T01:07:18.698Z,18.80
2022-09-06T01:10:13.855Z,18.80
2022-09-06T01:12:59.165Z,18.80
2022-09-06T01:15:28.812Z,18.80
2022-09-06T01:18:21.274Z,18.80
2022-09-06T01:21:27.271Z,18.80
2022-09-06T01:24:01.509Z,18.80
2022-09-06T01:26:56.212Z,18.80
2022-09-06T01:29:23.160Z,18.80
2022-09-06T01:31:56.931Z,18.80
2022-09-06T01:34:47.839Z,18.80
2022-09-06T01:37:17.908Z,18.80
2022-09-06T01:39:44.844Z,18.80
2022-09-06T01:42:30.992Z,18.80
2022-09-06T01:45:04.304Z,18.90
2022-09-06T01:48:13.138Z,18.90
2022-09-06T01:51:01.285Z,19.00
2022-09-06T01:53:55.519Z,19.00
2022-09-06T01:56:56.547Z,19.10
2022-09-06T01:59:41.559Z,19.10
2022-09-06T02:02:49.112Z,19.20
2022-09-06T02:05:29.560Z,19.20
2022-09-06T02:08:07.029Z,19.20
2022-09-06T02:10:58.175Z,19.20
2022-09-06T02:13:30.592Z,19.20
2022-09-06T02:16:02.680Z,19.10
2022-09-06T02:18:51.585Z,19.10
2022-09-06T02:21:25.195Z,19.00
2022-09-06T02:23:54.797Z,19.00
2022-09-06T02:26:28.288Z,18.90
2022-09-06T02:28:56.047Z,18.90
2022-09-06T02:31:31.529Z,18.90
2022-09-06T02:33:59.092Z,18.80
2022-09-06T02:36:26.424Z,18.80
2022-09-06T02:38:55.000Z,18.80
2022-09-06T02:41:24.306Z,18.70
2022-09-06T02:43:52.226Z,18.70
2022-09-06T02:46:19.175Z,18.70
2022-09-06T02:48:46.956Z,18.70
2022-09-06T02:51:14.049Z,18.60
2022-09-06T02:53:41.113Z,18.60
2022-09-06T02:56:08.369Z,18.60
2022-09-06T02:58:35.643Z,18.50
2022-09-06T03:01:02.592Z,18.50
2022-09-06T03:03:29.781Z,18.50
2022-09-06T03:05:57.081Z,18.50
2022-09-06T03:08:26.550Z,18.50
2022-09-06T03:10:56.275Z,18.50
2022-09-06T03:13:26.628Z,18.50
2022-09-06T03:15:56.348Z,18.50
2022-09-06T03:18:28.453Z,18.60
2022-09-06T03:20:56.891Z,18.60
2022-09-06T03:23:26.946Z,18.60
2022-09-06T03:25:54.616Z,18.60
2022-09-06T03:28:23.596Z,18.60
2022-09-06T03:30:52.062Z,18.70
2022-09-06T03:33:20.394Z,18.70
2022-09-06T03:35:53.593Z,18.70
2022-09-06T03:38:21.302Z,18.80
2022-09-06T03:40:49.729Z,18.80
2022-09-06T03:43:18.584Z,18.80
2022-09-06T03:45:50.179Z,18.80
2022-09-06T03:48:18.365Z,18.90
2022-09-06T03:50:47.016Z,18.90
2022-09-06T03:53:15.203Z,18.90
2022-09-06T03:55:45.330Z,18.90
2022-09-06T03:58:12.346Z,18.90
2022-09-06T04:00:39.506Z,18.90
2022-09-06T04:03:06.403Z,18.90
2022-09-06T04:05:33.436Z,18.90
2022-09-06T04:08:00.383Z,18.80
2022-09-06T04:10:27.289Z,18.80
2022-09-06T04:12:54.553Z,18.80
2022-09-06T04:15:21.423Z,18.80
2022-09-06T04:17:48.375Z,18.80
2022-09-06T04:20:16.135Z,18.80
2022-09-06T04:22:43.072Z,18.80
2022-09-06T04:25:10.667Z,18.80
2022-09-06T04:27:37.572Z,18.70
2022-09-06T04:30:05.015Z,18.70
2022-09-06T04:32:32.771Z,18.70
2022-09-06T04:34:59.718Z,18.70
2022-09-06T04:37:26.711Z,18.60
2022-09-06T04:39:54.277Z,18.60
2022-09-06T04:42:21.319Z,18.50
2022-09-06T04:44:48.199Z,18.40
2022-09-06T04:47:16.313Z,18.40
2022-09-06T04:49:43.287Z,18.30
2022-09-06T04:52:11.335Z,18.30
2022-09-06T04:54:38.464Z,18.20
2022-09-06T04:57:05.779Z,18.20
2022-09-06T04:59:32.961Z,18.20
2022-09-06T05:02:00.026Z,18.10
2022-09-06T05:04:27.048Z,18.10
2022-09-06T05:07:02.196Z,18.00
2022-09-06T05:09:29.199Z,17.90
2022-09-06T05:11:56.292Z,17.90
2022-09-06T05:14:23.377Z,17.90
2022-09-06T05:16:50.585Z,17.80
2022-09-06T05:19:19.235Z,17.80
2022-09-06T05:21:46.532Z,17.70
2022-09-06T05:24:13.804Z,17.70
2022-09-06T05:26:40.736Z,17.60
2022-09-06T05:29:07.640Z,17.60
2022-09-06T05:31:36.275Z,17.60
2022-09-06T05:34:04.198Z,17.60
2022-09-06T05:36:31.735Z,17.50
2022-09-06T05:38:59.604Z,17.50
2022-09-06T05:41:27.166Z,17.60
2022-09-06T05:43:54.201Z,17.60
2022-09-06T05:46:21.453Z,17.60
2022-09-06T05:49:04.948Z,17.50
2022-09-06T05:51:32.885Z,17.50
2022-09-06T05:54:00.044Z,17.50
2022-09-06T05:56:27.174Z,17.50
2022-09-06T05:58:54.293Z,17.60
2022-09-06T06:01:23.548Z,17.60
2022-09-06T06:04:02.351Z,17.60
2022-09-06T06:06:32.877Z,17.60
2022-09-06T06:09:02.352Z,17.70
2022-09-06T06:11:31.271Z,17.70
2022-09-06T06:13:59.169Z,17.70
2022-09-06T06:16:26.297Z,17.70
2022-09-06T06:18:53.240Z,17.80
2022-09-06T06:21:21.742Z,17.80
2022-09-06T06:23:53.583Z,17.90
2022-09-06T06:26:21.050Z,17.90
2022-09-06T06:28:48.933Z,18.00
2022-09-06T06:31:16.263Z,18.10
2022-09-06T06:33:44.393Z,18.20
2022-09-06T06:36:14.422Z,18.30
2022-09-06T06:38:44.413Z,18.40
2022-09-06T06:41:13.973Z,18.60
2022-09-06T06:43:41.284Z,18.70
2022-09-06T06:46:16.845Z,18.80
2022-09-06T06:48:45.491Z,18.90
2022-09-06T06:51:18.107Z,19.00
2022-09-06T06:53:47.566Z,19.10
2022-09-06T06:56:22.499Z,19.20
2022-09-06T06:58:52.646Z,19.40
2022-09-06T07:01:21.338Z,19.60
2022-09-06T07:03:49.326Z,19.70
2022-09-06T07:06:17.722Z,19.90
2022-09-06T07:08:45.640Z,20.10
2022-09-06T07:11:14.556Z,20.40
2022-09-06T07:13:42.042Z,20.70
2022-09-06T07:16:11.628Z,20.90
2022-09-06T07:18:42.251Z,21.00
2022-09-06T07:24:08.749Z,21.40
2022-09-06T07:26:39.856Z,21.60
2022-09-06T07:29:07.988Z,21.60
2022-09-06T07:34:25.445Z,21.70
2022-09-06T07:36:53.774Z,21.90
2022-09-06T07:39:20.993Z,22.10
2022-09-06T07:41:47.969Z,22.40
2022-09-06T07:44:15.548Z,22.50
2022-09-06T07:46:42.783Z,22.70
2022-09-06T07:49:09.756Z,22.80
2022-09-06T07:51:36.739Z,22.90
2022-09-06T07:54:28.676Z,23.00
2022-09-06T07:56:51.290Z,23.30
2022-09-06T07:59:18.266Z,23.30
2022-09-06T08:01:45.443Z,23.40
2022-09-06T08:04:15.660Z,23.50
2022-09-06T08:09:36.418Z,23.90
2022-09-06T08:12:07.026Z,23.80
2022-09-06T08:14:34.619Z,23.60
2022-09-06T08:17:02.727Z,23.40
2022-09-06T08:19:29.695Z,23.50
2022-09-06T08:21:57.967Z,23.80
2022-09-06T08:24:26.108Z,24.10
2022-09-06T08:26:53.051Z,24.50
2022-09-06T08:29:20.183Z,24.80
2022-09-06T08:31:47.671Z,24.90
2022-09-06T08:34:15.363Z,24.70
2022-09-06T08:36:43.135Z,24.70
2022-09-06T08:39:10.586Z,24.90
2022-09-06T08:41:54.948Z,25.30
2022-09-06T08:47:22.937Z,26.00
2022-09-06T08:49:54.817Z,26.40
2022-09-06T08:52:34.335Z,26.80
2022-09-06T08:55:35.458Z,26.80
2022-09-06T08:58:08.366Z,26.80
2022-09-06T09:00:37.284Z,26.70
2022-09-06T09:03:16.806Z,26.60
2022-09-06T09:05:47.323Z,26.70
2022-09-06T09:08:23.788Z,26.90
2022-09-06T09:10:59.330Z,27.10
2022-09-06T09:13:47.452Z,27.50
2022-09-06T09:16:15.786Z,27.90
2022-09-06T09:18:52.640Z,28.20
2022-09-06T09:21:30.128Z,28.50
2022-09-06T09:24:18.064Z,28.60
2022-09-06T09:26:53.516Z,28.60
2022-09-06T09:29:24.115Z,28.80
2022-09-06T09:31:55.695Z,29.30
2022-09-06T09:34:31.163Z,29.80
2022-09-06T09:37:46.425Z,30.10
2022-09-06T09:40:39.938Z,30.50
2022-09-06T09:43:22.201Z,30.50
2022-09-06T09:46:10.943Z,30.70
2022-09-06T09:48:38.671Z,31.20
2022-09-06T09:51:27.711Z,31.40
2022-09-06T09:54:00.327Z,31.60
2022-09-06T09:56:40.818Z,31.70
2022-09-06T09:59:26.717Z,32.10
2022-09-06T10:02:02.209Z,32.50
2022-09-06T10:04:45.717Z,32.60
2022-09-06T10:07:22.931Z,32.70
2022-09-06T10:09:58.533Z,32.70
2022-09-06T10:12:34.857Z,32.60
2022-09-06T10:15:03.725Z,32.90
2022-09-06T10:17:35.942Z,33.10
2022-09-06T10:20:08.584Z,33.50
2022-09-06T10:22:58.975Z,34.00
2022-09-06T10:25:49.075Z,34.40
2022-09-06T10:28:29.672Z,34.50
2022-09-06T10:31:13.009Z,34.10
2022-09-06T10:34:02.115Z,33.90
2022-09-06T10:36:37.734Z,33.70
2022-09-06T10:39:31.971Z,33.90
2022-09-06T10:42:10.029Z,34.30
2022-09-06T10:45:12.307Z,34.00
2022-09-06T10:48:04.849Z,34.40
2022-09-06T10:51:21.285Z,35.00
2022-09-06T10:54:17.847Z,35.40
2022-09-06T10:56:50.876Z,35.60
2022-09-06T10:59:56.185Z,35.70
2022-09-06T11:06:09.613Z,35.90
2022-09-06T11:09:08.609Z,36.00
2022-09-06T11:11:46.289Z,36.00
2022-09-06T11:14:15.052Z,36.10
2022-09-06T11:17:05.139Z,36.00
2022-09-06T11:19:47.085Z,35.80
2022-09-06T11:22:37.794Z,35.50
2022-09-06T11:25:30.358Z,34.90
2022-09-06T11:28:01.197Z,34.40
2022-09-06T11:30:30.318Z,34.20
2022-09-06T11:33:24.683Z,33.90
2022-09-06T11:35:52.968Z,33.90
2022-09-06T11:38:26.733Z,34.00
2022-09-06T11:41:06.311Z,34.10
2022-09-06T11:43:49.523Z,34.30
2022-09-06T11:46:34.838Z,34.30
2022-09-06T11:49:24.899Z,34.10
2022-09-06T11:51:51.823Z,34.00
2022-09-06T11:54:18.755Z,33.80
2022-09-06T11:57:07.186Z,33.70
2022-09-06T11:59:48.075Z,33.60
2022-09-06T12:02:38.464Z,33.40
2022-09-06T12:05:07.535Z,33.00
2022-09-06T12:07:58.735Z,32.70
2022-09-06T12:10:31.836Z,32.40
2022-09-06T12:12:59.323Z,32.20
2022-09-06T12:15:51.845Z,31.90
2022-09-06T12:18:43.946Z,31.60
2022-09-06T12:21:41.833Z,31.30
2022-09-06T12:24:33.618Z,31.10
2022-09-06T12:27:27.005Z,30.80
2022-09-06T12:30:21.279Z,30.60
2022-09-06T12:32:50.198Z,30.60
2022-09-06T12:38:16.011Z,30.70
2022-09-06T12:40:48.799Z,30.70
2022-09-06T12:43:17.520Z,30.80
2022-09-06T12:45:50.838Z,30.90
2022-09-06T12:48:58.928Z,31.10
2022-09-06T12:51:26.345Z,31.20
2022-09-06T12:53:54.997Z,31.50
2022-09-06T12:56:24.252Z,31.70
2022-09-06T12:58:51.319Z,31.90
2022-09-06T13:01:33.708Z,32.00
2022-09-06T13:04:29.722Z,31.80
2022-09-06T13:06:58.245Z,31.50
2022-09-06T13:09:27.335Z,31.30
2022-09-06T13:11:57.951Z,31.20
2022-09-06T13:14:29.212Z,31.20
2022-09-06T13:17:00.008Z,31.20
2022-09-06T13:19:39.232Z,31.10
2022-09-06T13:22:08.864Z,31.00
2022-09-06T13:24:35.744Z,30.80
2022-09-06T13:27:34.788Z,30.50
2022-09-06T13:30:09.223Z,30.30
2022-09-06T13:32:45.677Z,30.10
2022-09-06T13:35:26.957Z,30.00
2022-09-06T13:37:53.913Z,29.90
2022-09-06T13:41:06.469Z,29.90
2022-09-06T13:43:28.912Z,29.80
2022-09-06T13:46:06.378Z,29.60
2022-09-06T13:48:33.819Z,29.40
2022-09-06T13:51:00.981Z,29.10
2022-09-06T13:53:28.215Z,29.00
2022-09-06T13:55:55.167Z,28.90
2022-09-06T13:58:22.446Z,28.80
2022-09-06T14:00:49.668Z,28.70
2022-09-06T14:03:24.769Z,28.70
2022-09-06T14:05:52.038Z,28.70
2022-09-06T14:08:19.036Z,28.70
2022-09-06T14:10:48.632Z,28.70
2022-09-06T14:13:16.789Z,28.80
2022-09-06T14:15:45.367Z,28.90
2022-09-06T14:18:14.569Z,28.90
2022-09-06T14:20:42.656Z,28.90
2022-09-06T14:23:09.713Z,28.70
2022-09-06T14:25:37.629Z,28.60
2022-09-06T14:28:05.533Z,28.80
2022-09-06T14:30:32.542Z,29.00
2022-09-06T14:32:59.488Z,29.10
2022-09-06T14:35:27.724Z,29.20
2022-09-06T14:37:54.658Z,29.20
2022-09-06T14:40:21.585Z,29.10
2022-09-06T14:42:50.570Z,29.10
2022-09-06T14:45:18.567Z,28.90
2022-09-06T14:47:45.719Z,28.60
2022-09-06T14:50:12.745Z,28.50
2022-09-06T14:52:39.635Z,28.30
2022-09-06T14:55:06.948Z,28.30
2022-09-06T14:57:33.925Z,28.20
2022-09-06T15:00:01.766Z,28.10
2022-09-06T15:02:29.160Z,27.90
2022-09-06T15:04:56.176Z,27.70
2022-09-06T15:07:23.413Z,27.40
2022-09-06T15:09:51.184Z,27.20
2022-09-06T15:12:18.231Z,27.10
2022-09-06T15:14:45.218Z,26.90
2022-09-06T15:17:13.200Z,26.90
2022-09-06T15:19:40.195Z,26.80
2022-09-06T15:22:07.382Z,26.70
2022-09-06T15:24:34.696Z,26.80
2022-09-06T15:27:01.646Z,26.90
2022-09-06T15:29:28.945Z,26.90
2022-09-06T15:31:56.064Z,26.90
2022-09-06T15:34:25.528Z,26.80
2022-09-06T15:36:53.599Z,26.80
2022-09-06T15:39:21.111Z,26.70
2022-09-06T15:41:50.399Z,26.60
2022-09-06T15:44:19.581Z,26.50
2022-09-06T15:46:52.206Z,26.50
2022-09-06T15:49:33.975Z,26.50
2022-09-06T15:52:02.657Z,26.60
2022-09-06T15:54:49.517Z,26.50
2022-09-06T15:57:17.486Z,26.50
2022-09-06T15:59:44.906Z,26.50
2022-09-06T16:02:12.484Z,26.40
2022-09-06T16:04:39.679Z,26.40
2022-09-06T16:07:07.331Z,26.30
2022-09-06T16:09:34.284Z,26.30
2022-09-06T16:12:01.208Z,26.20
2022-09-06T16:14:29.139Z,26.20
2022-09-06T16:16:57.468Z,26.20
2022-09-06T16:19:26.157Z,26.20
2022-09-06T16:21:53.153Z,26.20
2022-09-06T16:24:21.440Z,26.20
2022-09-06T16:26:48.697Z,26.10
2022-09-06T16:29:18.194Z,26.00
2022-09-06T16:31:45.549Z,25.90
2022-09-06T16:34:13.446Z,25.90
2022-09-06T16:36:40.854Z,25.80
2022-09-06T16:39:08.777Z,25.80
2022-09-06T16:41:40.759Z,25.80
2022-09-06T16:44:09.157Z,25.80
2022-09-06T16:46:36.304Z,25.70
2022-09-06T16:49:04.534Z,25.70
2022-09-06T16:51:32.413Z,25.60
2022-09-06T16:54:00.223Z,25.60
2022-09-06T16:56:33.427Z,25.50
2022-09-06T16:59:02.568Z,25.40
2022-09-06T17:01:31.329Z,25.30
2022-09-06T17:03:59.578Z,25.20
2022-09-06T17:06:26.675Z,25.10
2022-09-06T17:08:55.605Z,25.00
2022-09-06T17:11:23.399Z,25.00
2022-09-06T17:13:52.605Z,25.00
2022-09-06T17:16:39.685Z,24.90
2022-09-06T17:19:07.600Z,24.80
2022-09-06T17:21:36.401Z,24.70
2022-09-06T17:24:04.793Z,24.60
2022-09-06T17:26:37.632Z,24.60
2022-09-06T17:29:05.965Z,24.50
2022-09-06T17:31:33.364Z,24.40
2022-09-06T17:34:00.424Z,24.40
2022-09-06T17:36:30.658Z,24.30
2022-09-06T17:39:18.610Z,24.20
2022-09-06T17:41:53.428Z,24.10
2022-09-06T17:44:23.482Z,24.10
2022-09-06T17:47:11.997Z,24.10
2022-09-06T17:49:37.658Z,24.00
2022-09-06T17:52:04.770Z,24.00
2022-09-06T17:54:31.950Z,23.90
2022-09-06T17:56:58.937Z,23.90
2022-09-06T17:59:25.892Z,23.80
2022-09-06T18:01:52.951Z,23.80
2022-09-06T18:04:20.869Z,23.70
2022-09-06T18:06:48.085Z,23.60
2022-09-06T18:09:17.599Z,23.50
2022-09-06T18:11:46.857Z,23.40
2022-09-06T18:14:16.846Z,23.40
2022-09-06T18:16:49.358Z,23.30
2022-09-06T18:19:17.611Z,23.30
2022-09-06T18:21:44.872Z,23.30
2022-09-06T18:24:15.586Z,23.30
2022-09-06T18:26:43.186Z,23.30
2022-09-06T18:29:14.984Z,23.30
2022-09-06T18:31:42.242Z,23.30
2022-09-06T18:34:09.464Z,23.30
2022-09-06T18:36:38.048Z,23.40
2022-09-06T18:39:05.578Z,23.30
2022-09-06T18:41:52.113Z,23.30
2022-09-06T18:44:19.161Z,23.30
2022-09-06T18:46:46.143Z,23.30
2022-09-06T18:49:15.215Z,23.30
2022-09-06T18:51:43.051Z,23.20
2022-09-06T18:54:11.243Z,23.20
2022-09-06T18:56:38.696Z,23.20
2022-09-06T18:59:07.130Z,23.20
2022-09-06T19:01:35.131Z,23.20
2022-09-06T19:04:04.573Z,23.30
2022-09-06T19:06:33.114Z,23.20
2022-09-06T19:09:02.001Z,23.30
2022-09-06T19:11:29.247Z,23.30
2022-09-06T19:13:57.489Z,23.30
2022-09-06T19:16:26.140Z,23.30
2022-09-06T19:18:56.105Z,23.20
2022-09-06T19:21:27.833Z,23.20
2022-09-06T19:24:06.976Z,23.20
2022-09-06T19:26:37.671Z,23.10
2022-09-06T19:29:07.395Z,23.00
2022-09-06T19:31:36.593Z,22.90
2022-09-06T19:34:04.219Z,22.90
2022-09-06T19:36:32.080Z,22.90
2022-09-06T19:39:06.559Z,22.90
2022-09-06T19:41:40.045Z,22.90
2022-09-06T19:44:08.823Z,22.80
2022-09-06T19:46:36.546Z,22.80
2022-09-06T19:49:05.268Z,22.70
2022-09-06T19:51:33.235Z,22.70
2022-09-06T19:54:00.535Z,22.60
2022-09-06T19:56:37.834Z,22.60
2022-09-06T19:59:07.265Z,22.60
2022-09-06T20:01:36.276Z,22.40
2022-09-06T20:04:07.034Z,22.30
2022-09-06T20:06:34.646Z,22.10
2022-09-06T20:09:03.477Z,21.80
2022-09-06T20:11:32.837Z,21.60
2022-09-06T20:14:00.923Z,21.50
2022-09-06T20:16:28.529Z,21.30
2022-09-06T20:18:56.467Z,21.00
2022-09-06T20:21:23.405Z,20.90
2022-09-06T20:23:51.997Z,20.80
2022-09-06T20:26:19.894Z,20.60
2022-09-06T20:28:47.559Z,20.50
2022-09-06T20:31:16.725Z,20.50
2022-09-06T20:33:49.449Z,20.50
2022-09-06T20:36:18.316Z,20.40
2022-09-06T20:38:46.611Z,20.30
2022-09-06T20:41:19.389Z,20.30
2022-09-06T20:43:54.701Z,20.30
2022-09-06T20:46:23.948Z,20.30
2022-09-06T20:48:52.058Z,20.20
2022-09-06T20:51:23.655Z,20.20
2022-09-06T20:53:56.138Z,20.20
2022-09-06T20:56:29.355Z,20.10
2022-09-06T20:58:59.557Z,20.10
2022-09-06T21:01:28.806Z,20.10
2022-09-06T21:03:58.237Z,20.00
2022-09-06T21:06:27.113Z,20.00
2022-09-06T21:08:54.377Z,20.00
2022-09-06T21:11:21.429Z,20.00
2022-09-06T21:13:51.212Z,20.00
2022-09-06T21:16:23.920Z,20.00
2022-09-06T21:18:56.459Z,20.00
2022-09-06T21:21:25.428Z,20.10
2022-09-06T21:23:52.987Z,20.10
2022-09-06T21:26:21.843Z,20.10
2022-09-06T21:28:49.499Z,20.10
2022-09-06T21:31:22.439Z,20.10
2022-09-06T21:33:54.700Z,20.10
2022-09-06T21:36:47.872Z,20.10
2022-09-06T21:39:15.300Z,20.10
2022-09-06T21:41:43.626Z,20.10
2022-09-06T21:44:10.682Z,20.10
2022-09-06T21:46:39.541Z,20.10
2022-09-06T21:49:08.967Z,20.00
2022-09-06T21:51:36.135Z,20.10
2022-09-06T21:54:04.462Z,20.10
2022-09-06T21:56:34.219Z,20.10
2022-09-06T21:59:01.660Z,20.10
2022-09-06T22:01:31.929Z,20.10
2022-09-06T22:03:59.900Z,20.10
2022-09-06T22:06:29.300Z,20.10
2022-09-06T22:09:01.242Z,20.10
2022-09-06T22:11:31.220Z,20.10
2022-09-06T22:14:04.056Z,20.00
2022-09-06T22:16:33.385Z,20.00
2022-09-06T22:19:00.903Z,20.00
2022-09-06T22:21:27.814Z,20.00
2022-09-06T22:24:06.843Z,19.90
2022-09-06T22:26:36.651Z,19.80
2022-09-06T22:29:06.959Z,19.80
2022-09-06T22:31:35.293Z,19.60
2022-09-06T22:34:03.037Z,19.50
2022-09-06T22:36:30.284Z,19.50
2022-09-06T22:38:57.943Z,19.50
2022-09-06T22:41:30.275Z,19.40
2022-09-06T22:43:59.590Z,19.30
2022-09-06T22:46:26.993Z,19.20
2022-09-06T22:48:54.309Z,19.10
2022-09-06T22:51:21.761Z,19.00
2022-09-06T22:53:48.680Z,18.90
2022-09-06T22:56:15.746Z,18.80
2022-09-06T22:58:42.699Z,18.80
2022-09-06T23:01:12.389Z,18.80
2022-09-06T23:03:40.202Z,18.80
2022-09-06T23:06:07.457Z,18.80
2022-09-06T23:08:36.794Z,18.80
2022-09-06T23:11:07.040Z,18.80
2022-09-06T23:13:34.725Z,18.80
2022-09-06T23:16:09.408Z,18.80
2022-09-06T23:18:36.376Z,18.80
2022-09-06T23:21:08.010Z,18.70
2022-09-06T23:23:35.876Z,18.70
2022-09-06T23:26:08.907Z,18.70
2022-09-06T23:28:36.548Z,18.70
2022-09-06T23:31:05.984Z,18.80
2022-09-06T23:33:37.016Z,18.80
2022-09-06T23:36:06.210Z,18.80
2022-09-06T23:38:34.738Z,18.80
2022-09-06T23:41:02.820Z,18.80
2022-09-06T23:43:31.208Z,18.70
2022-09-06T23:45:58.568Z,18.70
2022-09-06T23:48:25.615Z,18.70
2022-09-06T23:50:52.636Z,18.70
2022-09-06T23:53:19.860Z,18.60
2022-09-06T23:55:46.882Z,18.60
2022-09-06T23:58:13.994Z,18.50
